createdAt,value
2018-05-09T00:01:33.075Z,5.70
2018-05-09T00:04:01.141Z,5.13
2018-05-09T00:06:28.694Z,5.40
2018-05-09T00:08:57.006Z,9.47
2018-05-09T00:11:24.524Z,4.37
2018-05-09T00:13:52.100Z,4.87
2018-05-09T00:16:21.333Z,5.20
2018-05-09T00:18:48.897Z,6.57
2018-05-09T00:21:17.388Z,7.07
2018-05-09T00:23:45.825Z,7.37
2018-05-09T00:26:14.109Z,4.93
2018-05-09T00:28:42.487Z,4.97
2018-05-09T00:31:09.992Z,3.83
2018-05-09T00:33:37.723Z,7.37
2018-05-09T00:36:06.019Z,6.23
2018-05-09T00:38:33.596Z,6.03
2018-05-09T00:41:01.115Z,6.60
2018-05-09T00:43:29.551Z,7.50
2018-05-09T00:45:57.090Z,7.20
2018-05-09T00:48:26.340Z,7.43
2018-05-09T00:50:54.885Z,6.67
2018-05-09T00:53:22.424Z,7.23
2018-05-09T00:55:50.984Z,7.73
2018-05-09T00:58:18.714Z,5.87
2018-05-09T01:00:47.186Z,5.00
2018-05-09T01:03:34.959Z,6.17
2018-05-09T01:06:02.550Z,10.13
2018-05-09T01:21:55.975Z,4.60
2018-05-09T01:24:23.533Z,4.30
2018-05-09T01:26:51.074Z,4.03
2018-05-09T01:29:18.592Z,4.57
2018-05-09T01:31:46.114Z,3.80
2018-05-09T01:34:13.666Z,7.33
2018-05-09T01:36:41.180Z,7.67
2018-05-09T01:39:09.642Z,4.33
2018-05-09T01:41:38.139Z,8.03
2018-05-09T01:44:06.687Z,8.33
2018-05-09T01:46:34.203Z,6.37
2018-05-09T01:49:01.708Z,3.93
2018-05-09T01:51:29.244Z,6.53
2018-05-09T01:53:57.510Z,6.93
2018-05-09T01:56:25.021Z,10.00
2018-05-09T01:58:52.698Z,5.90
2018-05-09T02:01:22.133Z,8.23
2018-05-09T02:03:49.692Z,7.20
2018-05-09T02:06:18.161Z,10.00
2018-05-09T02:08:45.691Z,5.93
2018-05-09T02:11:13.991Z,9.03
2018-05-09T02:13:41.523Z,5.07
2018-05-09T02:16:09.149Z,4.43
2018-05-09T02:18:36.730Z,5.70
2018-05-09T02:21:04.277Z,7.70
2018-05-09T02:23:32.775Z,6.07
2018-05-09T02:26:01.241Z,4.07
2018-05-09T02:28:29.777Z,7.57
2018-05-09T02:30:57.303Z,6.10
2018-05-09T02:33:25.870Z,4.37
2018-05-09T02:35:54.392Z,5.10
2018-05-09T02:38:23.829Z,7.27
2018-05-09T02:41:10.844Z,5.03
2018-05-09T02:46:17.946Z,11.70
2018-05-09T02:48:45.535Z,9.53
2018-05-09T02:51:13.124Z,7.50
2018-05-09T02:53:41.573Z,8.07
2018-05-09T02:56:09.127Z,3.93
2018-05-09T02:58:37.451Z,9.40
2018-05-09T03:01:04.969Z,7.50
2018-05-09T03:03:32.558Z,10.00
2018-05-09T03:06:01.044Z,9.53
2018-05-09T03:08:28.541Z,7.20
2018-05-09T03:10:57.016Z,11.00
2018-05-09T03:13:24.708Z,9.37
2018-05-09T03:15:52.262Z,7.70
2018-05-09T03:18:19.792Z,7.27
2018-05-09T03:20:47.330Z,5.73
2018-05-09T03:23:14.906Z,8.20
2018-05-09T03:25:42.446Z,8.67
2018-05-09T03:28:12.087Z,7.97
2018-05-09T03:30:39.643Z,7.63
2018-05-09T03:33:08.111Z,9.53
2018-05-09T03:35:35.657Z,6.30
2018-05-09T03:38:03.167Z,8.27
2018-05-09T03:40:30.685Z,10.37
2018-05-09T03:43:02.203Z,8.47
2018-05-09T03:45:29.776Z,8.70
2018-05-09T03:47:57.323Z,8.07
2018-05-09T03:50:26.335Z,11.00
2018-05-09T03:52:53.884Z,6.40
2018-05-09T03:55:22.407Z,6.63
2018-05-09T03:57:49.992Z,11.20
2018-05-09T04:00:17.546Z,8.97
2018-05-09T04:02:56.742Z,6.77
2018-05-09T04:05:36.203Z,8.83
2018-05-09T04:08:15.547Z,10.73
2018-05-09T04:10:43.150Z,6.33
2018-05-09T04:13:11.694Z,8.53
2018-05-09T04:15:39.199Z,10.07
2018-05-09T04:18:06.841Z,9.40
2018-05-09T04:20:38.670Z,9.60
2018-05-09T04:23:12.288Z,8.37
2018-05-09T04:25:50.177Z,9.27
2018-05-09T04:28:17.855Z,8.47
2018-05-09T04:30:45.369Z,8.70
2018-05-09T04:33:13.829Z,8.70
2018-05-09T04:36:07.994Z,7.63
2018-05-09T04:38:35.554Z,5.70
2018-05-09T04:41:03.868Z,4.47
2018-05-09T04:43:31.398Z,9.33
2018-05-09T04:45:58.967Z,11.90
2018-05-09T04:48:28.230Z,10.70
2018-05-09T04:50:55.779Z,11.67
2018-05-09T04:53:24.270Z,14.93
2018-05-09T04:55:51.856Z,8.30
2018-05-09T04:58:19.366Z,7.93
2018-05-09T05:00:48.831Z,12.63
2018-05-09T05:03:36.154Z,6.83
2018-05-09T05:08:43.958Z,6.60
2018-05-09T05:11:11.623Z,12.53
2018-05-09T05:13:39.266Z,11.27
2018-05-09T05:16:06.826Z,8.83
2018-05-09T05:18:34.446Z,10.00
2018-05-09T05:21:20.589Z,10.40
2018-05-09T05:23:48.134Z,13.57
2018-05-09T05:26:15.691Z,10.53
2018-05-09T05:28:44.074Z,9.53
2018-05-09T05:31:12.354Z,18.83
2018-05-09T05:33:40.636Z,32.97
2018-05-09T05:36:08.178Z,36.53
2018-05-09T05:38:35.732Z,43.87
2018-05-09T05:41:04.246Z,22.47
2018-05-09T05:43:32.601Z,22.37
2018-05-09T05:46:00.108Z,14.20
2018-05-09T05:48:27.710Z,13.17
2018-05-09T05:50:56.202Z,13.30
2018-05-09T05:53:23.720Z,11.13
2018-05-09T05:55:51.285Z,11.87
2018-05-09T05:58:19.443Z,8.57
2018-05-09T06:00:47.015Z,15.80
2018-05-09T06:03:15.290Z,19.07
2018-05-09T06:05:42.887Z,12.53
2018-05-09T06:08:10.448Z,10.03
2018-05-09T06:10:38.019Z,7.93
2018-05-09T06:13:05.585Z,7.47
2018-05-09T06:15:33.129Z,11.77
2018-05-09T06:18:01.408Z,8.77
2018-05-09T06:20:29.705Z,14.70
2018-05-09T06:22:58.134Z,9.93
2018-05-09T06:25:25.664Z,11.33
2018-05-09T06:27:54.136Z,10.20
2018-05-09T06:30:21.657Z,10.80
2018-05-09T06:32:49.172Z,11.17
2018-05-09T06:35:16.674Z,11.57
2018-05-09T06:37:44.950Z,14.00
2018-05-09T06:40:13.469Z,12.97
2018-05-09T06:42:41.011Z,11.27
2018-05-09T06:45:08.530Z,8.67
2018-05-09T06:47:36.167Z,13.97
2018-05-09T06:50:03.774Z,13.07
2018-05-09T06:52:32.026Z,11.87
2018-05-09T06:55:00.301Z,8.83
2018-05-09T06:57:30.509Z,12.30
2018-05-09T06:59:58.082Z,14.27
2018-05-09T07:02:25.774Z,11.90
2018-05-09T07:04:53.197Z,10.00
2018-05-09T07:07:21.646Z,8.87
2018-05-09T07:09:49.144Z,11.07
2018-05-09T07:12:16.727Z,12.40
2018-05-09T07:14:45.040Z,10.67
2018-05-09T07:17:12.643Z,11.33
2018-05-09T07:19:40.200Z,11.77
2018-05-09T07:22:07.830Z,13.33
2018-05-09T07:24:35.261Z,12.33
2018-05-09T07:27:02.787Z,15.03
2018-05-09T07:29:30.312Z,16.63
2018-05-09T07:31:57.890Z,15.37
2018-05-09T07:34:25.408Z,11.30
2018-05-09T07:36:52.924Z,15.60
2018-05-09T07:39:20.484Z,11.67
2018-05-09T07:41:48.003Z,15.50
2018-05-09T07:44:15.523Z,17.13
2018-05-09T07:46:43.133Z,18.07
2018-05-09T07:49:10.717Z,13.57
2018-05-09T07:51:38.321Z,13.30
2018-05-09T07:54:07.810Z,15.43
2018-05-09T07:56:35.404Z,16.30
2018-05-09T07:59:03.854Z,13.87
2018-05-09T08:01:31.358Z,25.53
2018-05-09T08:03:58.919Z,14.13
2018-05-09T08:06:26.495Z,14.97
2018-05-09T08:08:54.003Z,14.23
2018-05-09T08:11:22.280Z,14.43
2018-05-09T08:13:52.481Z,15.20
2018-05-09T08:16:20.053Z,11.63
2018-05-09T08:18:47.625Z,16.03
2018-05-09T08:21:15.135Z,20.50
2018-05-09T08:23:42.693Z,15.57
2018-05-09T08:26:10.237Z,13.33
2018-05-09T08:28:37.938Z,16.83
2018-05-09T08:31:05.448Z,19.97
2018-05-09T08:33:32.960Z,16.60
2018-05-09T08:36:19.215Z,18.23
2018-05-09T08:38:46.635Z,17.97
2018-05-09T08:41:15.096Z,17.30
2018-05-09T08:43:42.728Z,17.83
2018-05-09T08:48:54.454Z,17.03
2018-05-09T08:51:21.952Z,15.50
2018-05-09T08:53:49.498Z,15.03
2018-05-09T08:56:17.936Z,17.03
2018-05-09T08:58:45.636Z,15.23
2018-05-09T09:01:13.205Z,15.57
2018-05-09T09:03:40.719Z,14.27
2018-05-09T09:06:08.272Z,14.27
2018-05-09T09:08:36.754Z,15.43
2018-05-09T09:11:04.316Z,13.47
2018-05-09T09:13:32.811Z,14.23
2018-05-09T09:16:00.350Z,13.03
2018-05-09T09:18:27.916Z,13.10
2018-05-09T09:20:55.495Z,22.10
2018-05-09T09:23:23.001Z,26.33
2018-05-09T09:25:51.300Z,14.40
2018-05-09T09:28:18.802Z,16.57
2018-05-09T09:30:46.385Z,12.53
2018-05-09T09:33:13.880Z,13.67
2018-05-09T09:35:41.388Z,18.47
2018-05-09T09:38:08.915Z,19.43
2018-05-09T09:40:36.473Z,17.07
2018-05-09T09:43:04.801Z,15.83
2018-05-09T09:45:32.327Z,13.87
2018-05-09T09:48:01.757Z,14.83
2018-05-09T09:50:29.293Z,14.70
2018-05-09T09:52:57.662Z,14.57
2018-05-09T09:55:25.188Z,17.13
2018-05-09T09:57:52.705Z,15.30
2018-05-09T10:00:24.817Z,16.97
2018-05-09T10:02:53.057Z,14.17
2018-05-09T10:05:20.635Z,16.17
2018-05-09T10:07:48.344Z,14.90
2018-05-09T10:10:15.855Z,13.83
2018-05-09T10:12:43.371Z,15.50
2018-05-09T10:15:12.950Z,13.57
2018-05-09T10:17:40.540Z,14.37
2018-05-09T10:20:08.977Z,16.77
2018-05-09T10:22:36.529Z,13.03
2018-05-09T10:25:04.883Z,16.73
2018-05-09T10:27:32.399Z,16.50
2018-05-09T10:29:59.939Z,16.30
2018-05-09T10:32:28.208Z,14.00
2018-05-09T10:34:55.724Z,12.63
2018-05-09T10:37:24.204Z,11.23
2018-05-09T10:39:51.740Z,13.43
2018-05-09T10:42:20.012Z,14.37
2018-05-09T10:44:48.312Z,11.13
2018-05-09T10:47:15.864Z,10.03
2018-05-09T10:49:44.131Z,12.80
2018-05-09T10:52:12.431Z,8.30
2018-05-09T10:54:40.036Z,9.77
2018-05-09T10:57:07.570Z,11.80
2018-05-09T10:59:35.094Z,11.13
2018-05-09T11:02:03.535Z,10.00
2018-05-09T11:04:31.028Z,9.70
2018-05-09T11:06:58.562Z,10.60
2018-05-09T11:09:27.010Z,12.77
2018-05-09T11:11:56.199Z,9.93
2018-05-09T11:14:23.725Z,12.47
2018-05-09T11:16:51.329Z,9.47
2018-05-09T11:19:18.837Z,9.23
2018-05-09T11:21:46.373Z,5.70
2018-05-09T11:24:14.637Z,9.00
2018-05-09T11:26:42.147Z,8.00
2018-05-09T11:29:09.704Z,8.10
2018-05-09T11:31:37.236Z,6.07
2018-05-09T11:34:05.097Z,6.90
2018-05-09T11:36:32.635Z,5.23
2018-05-09T11:39:01.054Z,9.67
2018-05-09T11:41:28.560Z,6.70
2018-05-09T11:43:56.166Z,10.17
2018-05-09T11:46:23.678Z,6.00
2018-05-09T11:48:51.182Z,7.63
2018-05-09T11:51:19.651Z,9.80
2018-05-09T11:53:47.217Z,10.23
2018-05-09T11:56:14.721Z,7.27
2018-05-09T11:58:42.278Z,9.63
2018-05-09T12:01:09.780Z,6.10
2018-05-09T12:03:38.230Z,6.60
2018-05-09T12:06:05.746Z,7.37
2018-05-09T12:08:33.252Z,4.50
2018-05-09T12:11:01.726Z,7.63
2018-05-09T12:13:29.349Z,12.03
2018-05-09T12:15:56.853Z,4.30
2018-05-09T12:18:24.365Z,9.13
2018-05-09T12:20:52.122Z,7.80
2018-05-09T12:23:20.376Z,5.50
2018-05-09T12:25:47.884Z,7.07
2018-05-09T12:28:15.386Z,6.00
2018-05-09T12:30:42.878Z,10.67
2018-05-09T12:33:10.396Z,8.10
2018-05-09T12:35:37.937Z,7.37
2018-05-09T12:38:07.207Z,8.03
2018-05-09T12:40:34.717Z,7.50
2018-05-09T12:43:02.249Z,5.30
2018-05-09T12:45:31.441Z,8.40
2018-05-09T12:47:59.034Z,9.13
2018-05-09T12:50:26.572Z,7.83
2018-05-09T12:52:54.086Z,5.10
2018-05-09T12:55:21.661Z,8.40
2018-05-09T12:57:49.175Z,5.47
2018-05-09T13:00:16.746Z,3.87
2018-05-09T13:02:44.269Z,7.60
2018-05-09T13:05:11.800Z,5.90
2018-05-09T13:07:39.314Z,5.20
2018-05-09T13:10:06.846Z,4.27
2018-05-09T13:12:34.374Z,6.13
2018-05-09T13:15:01.958Z,5.20
2018-05-09T13:17:29.475Z,4.93
2018-05-09T13:19:57.058Z,4.77
2018-05-09T13:22:25.371Z,6.43
2018-05-09T13:24:54.911Z,9.87
2018-05-09T13:27:22.460Z,5.17
2018-05-09T13:29:50.014Z,5.90
2018-05-09T13:32:17.590Z,6.53
2018-05-09T13:34:45.133Z,4.97
2018-05-09T13:37:12.647Z,3.90
2018-05-09T13:39:40.166Z,8.40
2018-05-09T13:42:07.727Z,6.33
2018-05-09T13:44:35.233Z,5.23
2018-05-09T13:47:02.737Z,6.43
2018-05-09T13:49:32.191Z,8.93
2018-05-09T13:52:00.688Z,5.97
2018-05-09T13:54:28.202Z,10.70
2018-05-09T13:56:55.729Z,5.83
2018-05-09T13:59:23.242Z,5.70
2018-05-09T14:01:50.774Z,7.30
2018-05-09T14:04:21.014Z,11.13
2018-05-09T14:06:48.728Z,12.23
2018-05-09T14:09:16.292Z,8.40
2018-05-09T14:11:44.792Z,8.43
2018-05-09T14:14:13.267Z,6.30
2018-05-09T14:16:40.813Z,7.10
2018-05-09T14:19:08.342Z,10.50
2018-05-09T14:21:36.857Z,12.13
2018-05-09T14:24:05.337Z,7.47
2018-05-09T14:26:33.313Z,6.13
2018-05-09T14:29:00.865Z,10.63
2018-05-09T14:31:28.366Z,5.70
2018-05-09T14:34:06.022Z,10.63
2018-05-09T14:36:33.568Z,7.40
2018-05-09T14:39:01.087Z,7.00
2018-05-09T14:41:28.712Z,4.93
2018-05-09T14:43:56.221Z,6.10
2018-05-09T14:46:23.815Z,4.87
2018-05-09T14:48:52.091Z,8.40
2018-05-09T14:51:19.632Z,9.37
2018-05-09T14:53:47.153Z,8.33
2018-05-09T14:56:34.493Z,7.07
2018-05-09T14:59:02.085Z,6.50
2018-05-09T15:01:30.560Z,5.43
2018-05-09T15:03:58.187Z,6.63
2018-05-09T15:06:25.815Z,19.47
2018-05-09T15:08:54.089Z,10.17
2018-05-09T15:11:21.655Z,6.50
2018-05-09T15:13:49.171Z,5.33
2018-05-09T15:16:16.728Z,9.60
2018-05-09T15:18:44.489Z,9.77
2018-05-09T15:21:13.705Z,6.83
2018-05-09T15:23:41.274Z,6.33
2018-05-09T15:26:09.818Z,6.23
2018-05-09T15:28:37.387Z,3.47
2018-05-09T15:31:04.967Z,5.37
2018-05-09T15:33:32.553Z,3.77
2018-05-09T15:36:00.157Z,5.30
2018-05-09T15:38:27.728Z,7.20
2018-05-09T15:40:57.178Z,6.17
2018-05-09T15:43:24.690Z,10.37
2018-05-09T15:45:52.211Z,9.10
2018-05-09T15:48:19.839Z,4.83
2018-05-09T15:50:49.303Z,9.13
2018-05-09T15:53:16.813Z,6.67
2018-05-09T15:55:45.259Z,4.67
2018-05-09T15:58:12.825Z,5.03
2018-05-09T16:00:40.452Z,9.10
2018-05-09T16:03:07.984Z,6.00
2018-05-09T16:05:35.529Z,6.87
2018-05-09T16:08:04.089Z,4.93
2018-05-09T16:10:32.569Z,4.97
2018-05-09T16:13:00.096Z,3.53
2018-05-09T16:15:27.593Z,6.07
2018-05-09T16:17:55.195Z,4.87
2018-05-09T16:20:22.724Z,5.10
2018-05-09T16:22:50.273Z,5.27
2018-05-09T16:25:18.618Z,3.97
2018-05-09T16:27:46.147Z,4.43
2018-05-09T16:30:14.605Z,5.87
2018-05-09T16:32:42.142Z,6.63
2018-05-09T16:35:09.670Z,7.73
2018-05-09T16:37:37.440Z,6.07
2018-05-09T16:40:04.992Z,7.53
2018-05-09T16:42:32.569Z,3.50
2018-05-09T16:45:01.074Z,5.47
2018-05-09T16:47:28.662Z,5.00
2018-05-09T16:49:57.223Z,3.70
2018-05-09T16:52:24.780Z,3.80
2018-05-09T16:54:52.305Z,5.30
2018-05-09T16:57:21.532Z,4.23
2018-05-09T16:59:50.092Z,4.17
2018-05-09T17:02:19.566Z,5.97
2018-05-09T17:04:47.094Z,3.20
2018-05-09T17:07:14.793Z,4.53
2018-05-09T17:10:02.873Z,6.23
2018-05-09T17:12:30.369Z,3.17
2018-05-09T17:14:58.876Z,5.50
2018-05-09T17:17:26.433Z,7.40
2018-05-09T17:19:54.029Z,6.17
2018-05-09T17:25:12.427Z,3.60
2018-05-09T17:27:39.972Z,4.83
2018-05-09T17:30:09.526Z,3.63
2018-05-09T17:32:37.041Z,7.23
2018-05-09T17:35:04.645Z,5.00
2018-05-09T17:37:32.212Z,7.30
2018-05-09T17:39:59.975Z,8.73
2018-05-09T17:42:27.578Z,12.83
2018-05-09T17:44:56.027Z,9.60
2018-05-09T17:47:23.545Z,7.67
2018-05-09T17:49:51.059Z,7.67
2018-05-09T17:52:19.550Z,5.23
2018-05-09T17:54:48.024Z,8.43
2018-05-09T17:57:15.540Z,8.23
2018-05-09T17:59:43.092Z,11.60
2018-05-09T18:02:13.070Z,11.40
2018-05-09T18:04:40.651Z,8.63
2018-05-09T18:07:08.241Z,14.50
2018-05-09T18:09:36.755Z,6.43
2018-05-09T18:12:04.321Z,8.67
2018-05-09T18:14:31.824Z,6.73
2018-05-09T18:16:59.486Z,13.50
2018-05-09T18:19:27.009Z,11.80
2018-05-09T18:21:54.591Z,14.90
2018-05-09T18:24:22.163Z,12.30
2018-05-09T18:26:50.784Z,8.90
2018-05-09T18:29:18.209Z,8.30
2018-05-09T18:31:46.685Z,11.90
2018-05-09T18:34:14.240Z,9.73
2018-05-09T18:36:42.707Z,6.57
2018-05-09T18:39:11.052Z,14.33
2018-05-09T18:41:39.566Z,6.83
2018-05-09T18:44:27.723Z,14.07
2018-05-09T18:49:40.131Z,8.30
2018-05-09T18:52:08.476Z,7.23
2018-05-09T18:54:36.006Z,8.63
2018-05-09T18:57:03.562Z,10.43
2018-05-09T18:59:31.187Z,10.53
2018-05-09T19:01:58.750Z,6.77
2018-05-09T19:04:26.305Z,5.63
2018-05-09T19:06:53.841Z,4.60
2018-05-09T19:09:21.363Z,4.97
2018-05-09T19:11:48.909Z,8.37
2018-05-09T19:14:16.444Z,7.20
2018-05-09T19:16:44.273Z,5.97
2018-05-09T19:19:13.784Z,7.10
2018-05-09T19:21:41.297Z,7.13
2018-05-09T19:24:09.770Z,5.17
2018-05-09T19:26:37.303Z,6.97
2018-05-09T19:29:05.845Z,4.73
2018-05-09T19:31:34.366Z,9.30
2018-05-09T19:34:02.675Z,6.50
2018-05-09T19:36:31.738Z,6.60
2018-05-09T19:39:00.011Z,6.90
2018-05-09T19:41:29.471Z,5.77
2018-05-09T19:43:57.008Z,9.40
2018-05-09T19:46:24.570Z,8.07
2018-05-09T19:48:52.107Z,12.53
2018-05-09T19:51:20.415Z,9.83
2018-05-09T19:53:47.995Z,12.67
2018-05-09T19:56:15.551Z,10.50
2018-05-09T19:58:44.979Z,7.50
2018-05-09T20:01:13.061Z,13.50
2018-05-09T20:03:40.600Z,8.73
2018-05-09T20:06:08.137Z,10.57
2018-05-09T20:08:37.594Z,17.30
2018-05-09T20:11:05.200Z,16.73
2018-05-09T20:13:34.518Z,13.80
2018-05-09T20:16:02.939Z,12.37
2018-05-09T20:18:30.547Z,9.50
2018-05-09T20:20:59.033Z,11.97
2018-05-09T20:23:26.539Z,11.80
2018-05-09T20:25:55.023Z,12.43
2018-05-09T20:28:22.565Z,8.13
2018-05-09T20:31:02.416Z,9.27
2018-05-09T20:33:30.672Z,11.43
2018-05-09T20:35:59.172Z,12.63
2018-05-09T20:38:29.484Z,6.87
2018-05-09T20:40:56.989Z,8.47
2018-05-09T20:43:25.271Z,5.33
2018-05-09T20:45:52.777Z,5.87
2018-05-09T20:48:20.286Z,8.73
2018-05-09T20:50:49.478Z,7.30
2018-05-09T20:53:17.078Z,5.10
2018-05-09T20:55:44.603Z,6.30
2018-05-09T20:58:13.118Z,6.50
2018-05-09T21:00:40.626Z,6.50
2018-05-09T21:03:10.129Z,7.10
2018-05-09T21:05:38.569Z,7.10
2018-05-09T21:08:07.840Z,6.00
2018-05-09T21:10:35.400Z,7.93
2018-05-09T21:13:02.942Z,7.57
2018-05-09T21:18:29.204Z,8.73
2018-05-09T21:20:57.693Z,5.47
2018-05-09T21:23:25.253Z,6.77
2018-05-09T21:25:52.777Z,5.67
2018-05-09T21:28:20.277Z,5.70
2018-05-09T21:30:47.813Z,5.83
2018-05-09T21:33:15.371Z,5.93
2018-05-09T21:35:43.810Z,8.00
2018-05-09T21:38:11.434Z,4.30
2018-05-09T21:40:38.974Z,3.70
2018-05-09T21:43:06.495Z,4.97
2018-05-09T21:45:34.927Z,3.30
2018-05-09T21:48:22.079Z,3.90
2018-05-09T22:04:00.170Z,4.43
2018-05-09T22:06:27.683Z,5.50
2018-05-09T22:08:55.284Z,5.03
2018-05-09T22:11:22.792Z,3.90
2018-05-09T22:13:53.003Z,5.73
2018-05-09T22:16:20.555Z,7.37
2018-05-09T22:18:49.043Z,3.60
2018-05-09T22:21:17.480Z,3.50
2018-05-09T22:23:45.018Z,4.20
2018-05-09T22:26:15.346Z,3.70
2018-05-09T22:28:43.798Z,5.60
2018-05-09T22:31:11.438Z,8.43
2018-05-09T22:33:39.901Z,6.87
2018-05-09T22:36:29.119Z,5.60
2018-05-09T22:39:07.888Z,7.50
2018-05-09T22:41:35.502Z,5.43
2018-05-09T22:44:03.983Z,5.80
2018-05-09T22:46:31.474Z,5.37
2018-05-09T23:02:38.233Z,3.93
2018-05-09T23:05:05.954Z,3.80
2018-05-09T23:07:33.442Z,6.07
2018-05-09T23:10:01.897Z,5.03
2018-05-09T23:12:29.392Z,5.30
2018-05-09T23:14:57.104Z,3.50
2018-05-09T23:17:24.595Z,5.90
2018-05-09T23:19:52.134Z,4.63
2018-05-09T23:22:19.671Z,5.63
2018-05-09T23:24:47.203Z,4.70
2018-05-09T23:27:14.714Z,5.50
2018-05-09T23:29:42.429Z,3.50
2018-05-09T23:32:28.589Z,5.73
2018-05-09T23:34:56.100Z,5.90
2018-05-09T23:40:01.557Z,5.23
2018-05-09T23:42:31.257Z,3.70
2018-05-09T23:44:59.735Z,4.20
2018-05-09T23:47:27.247Z,4.80
2018-05-09T23:49:54.743Z,3.90
2018-05-09T23:52:22.266Z,5.03
2018-05-09T23:54:49.756Z,3.67
2018-05-09T23:57:17.356Z,3.73
2018-05-09T23:59:44.942Z,4.17
